Time;durP1;ratioP1;P1;durP2;ratioP2;P2;SDS_P1;SDS_P2;PMS_P1;PMS_P2;Temp;Humidity;BMP_temperature;BMP_pressure;BME280_temperature;BME280_humidity;BME280_pressure;Samples;Min_cycle;Max_cycle;Signal;HPM_P1;HPM_P2
2021/06/06 00:01:11;;;;;;;1.05;0.70;;;12.30;99.90;;;;;;4733774;30;20051;-79
2021/06/06 00:03:47;;;;;;;0.88;0.73;;;12.30;99.90;;;;;;4733465;30;20052;-79
2021/06/06 00:06:24;;;;;;;0.80;0.80;;;12.20;99.90;;;;;;4733893;30;20082;-78
2021/06/06 00:08:55;;;;;;;1.00;0.90;;;12.20;99.90;;;;;;4720029;30;20064;-79
2021/06/06 00:11:25;;;;;;;1.77;0.52;;;12.30;99.90;;;;;;4736624;30;20052;-79
2021/06/06 00:13:56;;;;;;;1.13;1.13;;;12.20;99.90;;;;;;4751223;30;20055;-79
2021/06/06 00:16:31;;;;;;;0.63;0.63;;;12.30;99.90;;;;;;4736967;30;20071;-85
2021/06/06 00:18:59;;;;;;;2.72;0.88;;;12.30;99.90;;;;;;4759613;30;20058;-84
2021/06/06 00:21:29;;;;;;;2.28;2.13;;;12.30;99.90;;;;;;4750357;30;20414;-84
2021/06/06 00:23:57;;;;;;;1.15;0.50;;;12.30;99.90;;;;;;4736995;30;20066;-85
2021/06/06 00:26:28;;;;;;;0.70;0.70;;;12.30;99.90;;;;;;4766113;30;20052;-85
2021/06/06 00:28:59;;;;;;;0.70;0.70;;;12.20;99.90;;;;;;4736528;30;20044;-84
2021/06/06 00:31:28;;;;;;;2.47;2.20;;;12.30;99.90;;;;;;4767286;30;20067;-84
2021/06/06 00:33:56;;;;;;;1.75;1.65;;;12.20;99.90;;;;;;4749664;30;20063;-84
2021/06/06 00:36:24;;;;;;;0.73;0.73;;;12.30;99.90;;;;;;4745628;30;20052;-82
2021/06/06 00:38:52;;;;;;;0.77;0.77;;;12.30;99.90;;;;;;4739709;30;20052;-83
2021/06/06 00:41:23;;;;;;;0.93;0.70;;;12.30;99.90;;;;;;4750605;30;20410;-84
2021/06/06 00:43:56;;;;;;;0.95;0.80;;;12.30;99.90;;;;;;4751495;30;20107;-83
2021/06/06 00:46:27;;;;;;;1.40;0.70;;;12.30;99.90;;;;;;4751141;30;20060;-84
2021/06/06 00:48:58;;;;;;;1.02;0.68;;;12.30;99.90;;;;;;4750500;30;20059;-83
2021/06/06 00:51:46;;;;;;;2.30;0.77;;;12.30;99.90;;;;;;4750926;30;20060;-84
2021/06/06 00:54:24;;;;;;;1.67;0.90;;;12.30;99.90;;;;;;4736369;30;20771;-84
2021/06/06 00:57:06;;;;;;;0.65;0.65;;;12.30;99.90;;;;;;4722047;30;20063;-83
2021/06/06 00:59:36;;;;;;;3.05;1.35;;;12.30;99.90;;;;;;4751303;30;20055;-83
2021/06/06 01:02:07;;;;;;;;;;;12.30;99.90;;;;;;4767372;30;20086;-83
2021/06/06 01:04:37;;;;;;;1.40;0.75;;;12.30;99.90;;;;;;4735214;30;19941;-84
2021/06/06 01:07:05;;;;;;;0.90;0.80;;;12.30;99.90;;;;;;4769271;30;20111;-84
2021/06/06 01:09:34;;;;;;;1.38;0.93;;;12.30;99.90;;;;;;4754383;30;20051;-84
2021/06/06 01:12:17;;;;;;;0.57;0.57;;;12.40;99.90;;;;;;4769063;30;20418;-84
2021/06/06 01:14:57;;;;;;;1.13;1.05;;;12.30;99.90;;;;;;4768721;30;20062;-82
2021/06/06 01:17:41;;;;;;;0.60;0.60;;;12.40;99.90;;;;;;4753485;30;20052;-84
2021/06/06 01:20:46;;;;;;;0.90;0.90;;;12.40;99.90;;;;;;4769012;30;20067;-85
2021/06/06 01:23:25;;;;;;;1.02;0.93;;;12.40;99.90;;;;;;4739128;30;20047;-83
2021/06/06 01:26:05;;;;;;;0.82;0.82;;;12.30;99.90;;;;;;4754619;30;20406;-83
2021/06/06 01:29:05;;;;;;;0.95;0.95;;;12.30;99.90;;;;;;4738929;30;20052;-83
2021/06/06 01:31:37;;;;;;;;;;;12.30;99.90;;;;;;4750969;30;20051;-82
2021/06/06 01:34:11;;;;;;;1.20;0.93;;;12.30;99.90;;;;;;4752257;30;19933;-85
2021/06/06 01:36:47;;;;;;;3.13;0.90;;;12.30;99.90;;;;;;4753751;30;20066;-83
2021/06/06 01:39:27;;;;;;;1.10;1.00;;;12.40;99.90;;;;;;4749550;30;20488;-83
2021/06/06 01:42:05;;;;;;;0.70;0.70;;;12.30;99.90;;;;;;4735725;30;20060;-84
2021/06/06 01:44:36;;;;;;;1.23;1.20;;;12.30;99.90;;;;;;4735805;30;20499;-83
2021/06/06 01:47:14;;;;;;;0.85;0.82;;;12.40;99.90;;;;;;4736373;30;20052;-85
2021/06/06 01:49:48;;;;;;;3.95;1.05;;;12.40;99.90;;;;;;4735664;30;20044;-84
2021/06/06 01:52:25;;;;;;;0.40;0.40;;;12.30;99.90;;;;;;4725330;30;20058;-82
2021/06/06 01:54:55;;;;;;;1.10;1.10;;;12.30;99.90;;;;;;4738649;30;20422;-84
2021/06/06 01:57:27;;;;;;;1.30;0.77;;;12.30;99.90;;;;;;4753794;30;20052;-83
2021/06/06 02:00:00;;;;;;;1.83;1.17;;;12.30;99.90;;;;;;4753293;30;20060;-84
2021/06/06 02:02:46;;;;;;;0.93;0.70;;;12.30;99.90;;;;;;4755898;30;20055;-85
2021/06/06 02:05:21;;;;;;;1.05;0.90;;;12.30;99.90;;;;;;4737716;30;20050;-85
2021/06/06 02:07:52;;;;;;;2.40;0.80;;;12.30;99.90;;;;;;4753822;30;20063;-82
2021/06/06 02:10:28;;;;;;;0.80;0.80;;;12.30;99.90;;;;;;4720684;30;20059;-84
2021/06/06 02:13:17;;;;;;;4.75;1.05;;;12.30;99.90;;;;;;4735315;30;20052;-84
2021/06/06 02:15:53;;;;;;;1.17;1.02;;;12.30;99.90;;;;;;4735749;30;20071;-83
2021/06/06 02:18:29;;;;;;;0.88;0.82;;;12.30;99.90;;;;;;4719818;30;20079;-85
2021/06/06 02:21:00;;;;;;;2.65;1.27;;;12.30;99.90;;;;;;4703729;30;20048;-85
2021/06/06 02:23:36;;;;;;;0.88;0.88;;;12.30;99.90;;;;;;4731422;30;20068;-84
2021/06/06 02:26:25;;;;;;;0.82;0.80;;;12.30;99.90;;;;;;4703641;30;20056;-84
2021/06/06 02:29:20;;;;;;;0.93;0.88;;;12.30;99.90;;;;;;4731779;30;20052;-85
2021/06/06 02:31:54;;;;;;;1.00;1.00;;;12.30;99.90;;;;;;4703631;30;20053;-82
2021/06/06 02:34:59;;;;;;;3.88;1.33;;;12.30;99.90;;;;;;4702466;30;20056;-85
2021/06/06 02:37:40;;;;;;;1.13;1.02;;;12.30;99.90;;;;;;4669317;30;20059;-82
2021/06/06 02:40:34;;;;;;;2.08;0.98;;;12.30;99.90;;;;;;4717714;30;20060;-85
2021/06/06 02:43:09;;;;;;;1.13;1.13;;;12.30;99.90;;;;;;4705910;30;20063;-85
2021/06/06 02:45:38;;;;;;;0.88;0.88;;;12.20;99.90;;;;;;4731916;30;20056;-85
2021/06/06 02:48:25;;;;;;;1.20;0.90;;;12.30;99.90;;;;;;4728613;30;20512;-84
2021/06/06 02:51:00;;;;;;;1.48;1.38;;;12.20;99.90;;;;;;4699597;30;20512;-84
2021/06/06 02:53:35;;;;;;;0.50;0.50;;;12.20;99.90;;;;;;4714272;30;20057;-85
2021/06/06 02:56:14;;;;;;;1.10;1.00;;;12.20;99.90;;;;;;4729418;30;20064;-84
2021/06/06 02:58:48;;;;;;;0.77;0.77;;;12.20;99.90;;;;;;4699076;30;20068;-85
2021/06/06 03:01:31;;;;;;;1.33;1.23;;;12.30;99.90;;;;;;4714131;30;20065;-84
2021/06/06 03:04:09;;;;;;;1.45;1.35;;;12.30;99.90;;;;;;4728280;30;20057;-85
2021/06/06 03:06:47;;;;;;;1.05;0.98;;;12.30;99.90;;;;;;4714114;30;20053;-85
2021/06/06 03:09:22;;;;;;;1.25;1.15;;;12.30;99.90;;;;;;4717650;30;20056;-86
2021/06/06 03:12:03;;;;;;;1.17;1.08;;;12.30;99.90;;;;;;4731920;30;20052;-85
2021/06/06 03:14:36;;;;;;;0.68;0.68;;;12.30;99.90;;;;;;4731336;30;20068;-84
2021/06/06 03:17:14;;;;;;;1.77;1.35;;;12.30;99.90;;;;;;4717107;30;20049;-85
2021/06/06 03:19:55;;;;;;;0.98;0.98;;;12.30;99.90;;;;;;4745421;30;20057;-85
2021/06/06 03:22:34;;;;;;;0.93;0.93;;;12.30;99.90;;;;;;4716973;30;20253;-85
2021/06/06 03:25:11;;;;;;;0.95;0.90;;;12.30;99.90;;;;;;4732221;30;20522;-85
2021/06/06 03:27:43;;;;;;;1.10;1.00;;;12.30;99.90;;;;;;4761272;30;20060;-84
2021/06/06 03:30:31;;;;;;;1.17;0.88;;;12.30;99.90;;;;;;4758901;30;20053;-85
2021/06/06 03:33:11;;;;;;;1.23;0.90;;;12.30;99.90;;;;;;4716852;30;20056;-84
2021/06/06 03:35:40;;;;;;;0.98;0.93;;;12.30;99.90;;;;;;4731289;30;20790;-85
2021/06/06 03:38:11;;;;;;;0.93;0.70;;;12.30;99.90;;;;;;4716498;30;20052;-84
2021/06/06 03:40:43;;;;;;;1.77;1.27;;;12.30;99.90;;;;;;4724770;30;20120;-84
2021/06/06 03:43:25;;;;;;;1.10;1.00;;;12.30;99.90;;;;;;4712366;30;20068;-83
2021/06/06 03:45:54;;;;;;;0.90;0.90;;;12.30;99.90;;;;;;4728044;30;20057;-85
2021/06/06 03:48:22;;;;;;;1.17;1.08;;;12.30;99.90;;;;;;4739413;30;20489;-84
2021/06/06 03:50:52;;;;;;;0.95;0.93;;;12.40;99.90;;;;;;4703398;30;20057;-83
2021/06/06 03:53:26;;;;;;;0.68;0.68;;;12.40;99.90;;;;;;4711199;30;20057;-82
2021/06/06 03:55:58;;;;;;;1.52;1.42;;;12.40;99.90;;;;;;4727058;30;20150;-84
2021/06/06 03:58:27;;;;;;;0.70;0.70;;;12.30;99.90;;;;;;4711965;30;20056;-84
2021/06/06 04:00:56;;;;;;;2.13;0.90;;;12.30;99.90;;;;;;4726130;30;20053;-83
2021/06/06 04:03:24;;;;;;;0.93;0.88;;;12.40;99.90;;;;;;4725470;30;20056;-83
2021/06/06 04:05:53;;;;;;;1.55;1.45;;;12.40;99.90;;;;;;4713626;30;20061;-84
2021/06/06 04:08:37;;;;;;;1.45;1.35;;;12.40;99.90;;;;;;4724465;30;20061;-83
2021/06/06 04:11:08;;;;;;;2.70;1.00;;;12.40;99.90;;;;;;4729984;30;20358;-83
2021/06/06 04:13:42;;;;;;;3.75;1.75;;;12.40;99.90;;;;;;4728964;30;20057;-83
2021/06/06 04:16:14;;;;;;;;;;;12.40;99.90;;;;;;4715541;30;20057;-84
2021/06/06 04:18:42;;;;;;;1.27;1.10;;;12.40;99.90;;;;;;4727848;30;19930;-83
2021/06/06 04:21:16;;;;;;;0.77;0.77;;;12.40;99.90;;;;;;4740537;30;20044;-83
2021/06/06 04:23:45;;;;;;;1.17;1.08;;;12.40;99.90;;;;;;4732503;30;20325;-85
2021/06/06 04:26:19;;;;;;;1.17;0.90;;;12.40;99.90;;;;;;4717950;30;20087;-84
2021/06/06 04:28:49;;;;;;;;;;;12.50;99.90;;;;;;4717870;30;20070;-83
2021/06/06 04:31:27;;;;;;;1.10;0.70;;;12.50;99.90;;;;;;4732410;30;20392;-84
2021/06/06 04:33:55;;;;;;;1.38;0.85;;;12.50;99.90;;;;;;4701791;30;20056;-84
2021/06/06 04:36:23;;;;;;;0.70;0.70;;;12.40;99.90;;;;;;4740938;30;20060;-85
2021/06/06 04:38:56;;;;;;;2.90;1.42;;;12.50;99.90;;;;;;4707195;30;20052;-84
2021/06/06 04:41:31;;;;;;;1.20;1.13;;;12.50;99.90;;;;;;4745716;30;20056;-84
2021/06/06 04:44:00;;;;;;;2.83;1.02;;;12.50;99.90;;;;;;4735576;30;20407;-84
2021/06/06 04:46:28;;;;;;;0.90;0.90;;;12.50;99.90;;;;;;4749455;30;20048;-84
2021/06/06 04:48:57;;;;;;;1.48;0.80;;;12.50;99.90;;;;;;4733717;30;20063;-83
2021/06/06 04:51:28;;;;;;;1.02;0.80;;;12.50;99.90;;;;;;4735460;30;20067;-84
2021/06/06 04:54:09;;;;;;;0.70;0.70;;;12.50;99.90;;;;;;4734706;30;20067;-84
2021/06/06 04:56:38;;;;;;;1.52;0.98;;;12.50;99.90;;;;;;4720819;30;20056;-84
2021/06/06 04:59:12;;;;;;;0.90;0.90;;;12.50;99.90;;;;;;4749837;30;20056;-85
2021/06/06 05:01:42;;;;;;;1.10;1.10;;;12.60;99.90;;;;;;4724930;30;20069;-84
2021/06/06 05:04:14;;;;;;;1.63;0.80;;;12.60;99.90;;;;;;4734047;30;20099;-83
2021/06/06 05:06:43;;;;;;;0.90;0.90;;;12.60;99.90;;;;;;4735253;30;20044;-83
2021/06/06 05:09:16;;;;;;;0.70;0.70;;;12.60;99.90;;;;;;4735024;30;20580;-85
2021/06/06 05:11:51;;;;;;;0.82;0.82;;;12.50;99.90;;;;;;4750251;30;20514;-85
2021/06/06 05:14:22;;;;;;;3.20;1.20;;;12.60;99.90;;;;;;4749556;30;20067;-84
2021/06/06 05:16:56;;;;;;;0.60;0.60;;;12.60;99.90;;;;;;4717616;30;20045;-84
2021/06/06 05:19:26;;;;;;;0.80;0.80;;;12.60;99.90;;;;;;4702285;30;20060;-85
2021/06/06 05:21:54;;;;;;;0.65;0.65;;;12.60;99.90;;;;;;4716673;30;20066;-84
2021/06/06 05:24:26;;;;;;;0.70;0.70;;;12.60;99.90;;;;;;4731060;30;20067;-85
2021/06/06 05:26:58;;;;;;;1.48;0.77;;;12.60;99.90;;;;;;4717282;30;20045;-84
2021/06/06 05:29:30;;;;;;;1.02;1.02;;;12.60;99.90;;;;;;4731188;30;20427;-85
2021/06/06 05:31:58;;;;;;;2.63;1.65;;;12.70;99.90;;;;;;4745807;30;20526;-85
2021/06/06 05:34:26;;;;;;;1.00;0.95;;;12.70;99.90;;;;;;4701356;30;20049;-85
2021/06/06 05:36:59;;;;;;;1.05;0.95;;;12.70;99.90;;;;;;4755937;30;20063;-86
2021/06/06 05:39:39;;;;;;;0.70;0.70;;;12.70;99.90;;;;;;4735777;30;20071;-86
2021/06/06 05:42:12;;;;;;;2.55;1.00;;;12.80;99.90;;;;;;4727856;30;20060;-86
2021/06/06 05:44:44;;;;;;;1.48;0.70;;;12.80;99.90;;;;;;4723565;30;20504;-85
2021/06/06 05:47:46;;;;;;;1.45;0.70;;;12.80;99.90;;;;;;4699216;30;20072;-86
2021/06/06 05:50:22;;;;;;;0.77;0.77;;;12.80;99.90;;;;;;4691472;30;20054;-86
2021/06/06 05:53:21;;;;;;;0.88;0.70;;;12.80;99.90;;;;;;4670865;30;20540;-87
2021/06/06 05:55:56;;;;;;;0.80;0.80;;;12.90;99.90;;;;;;4693988;30;20058;-87
2021/06/06 05:58:24;;;;;;;0.68;0.68;;;12.90;99.90;;;;;;4679571;30;20418;-86
2021/06/06 06:00:52;;;;;;;5.97;0.77;;;12.90;99.90;;;;;;4664212;30;20054;-85
2021/06/06 06:03:21;;;;;;;0.50;0.50;;;12.80;99.90;;;;;;4664101;30;20058;-85
2021/06/06 06:05:49;;;;;;;1.02;0.80;;;12.90;99.90;;;;;;4690716;30;20068;-86
2021/06/06 06:08:37;;;;;;;0.70;0.63;;;12.90;99.90;;;;;;4695296;30;20064;-87
2021/06/06 06:11:16;;;;;;;1.00;1.00;;;12.90;99.90;;;;;;4716573;30;20065;-87
2021/06/06 06:13:52;;;;;;;0.60;0.60;;;12.90;99.90;;;;;;4718742;30;20060;-87
2021/06/06 06:16:30;;;;;;;0.80;0.80;;;13.00;99.90;;;;;;4732388;30;20084;-86
2021/06/06 06:19:23;;;;;;;0.70;0.70;;;13.00;99.90;;;;;;4716597;30;20073;-87
2021/06/06 06:21:51;;;;;;;1.02;1.02;;;13.00;99.90;;;;;;4716674;30;20117;-86
2021/06/06 06:24:19;;;;;;;0.80;0.80;;;13.00;99.90;;;;;;4734083;30;20065;-86
2021/06/06 06:26:55;;;;;;;1.85;1.75;;;12.90;99.90;;;;;;4714566;30;20053;-85
2021/06/06 06:29:39;;;;;;;0.55;0.55;;;12.90;99.90;;;;;;4740031;30;20061;-86
2021/06/06 06:32:27;;;;;;;0.95;0.82;;;12.90;99.90;;;;;;4716774;30;20061;-87
2021/06/06 06:34:55;;;;;;;1.15;1.00;;;12.90;99.90;;;;;;4714627;30;20056;-87
2021/06/06 06:37:29;;;;;;;0.73;0.52;;;13.00;99.90;;;;;;4727297;30;20049;-86
2021/06/06 06:39:57;;;;;;;0.73;0.73;;;13.00;99.90;;;;;;4731295;30;20061;-86
2021/06/06 06:42:27;;;;;;;0.70;0.70;;;12.90;99.90;;;;;;4731832;30;20056;-85
2021/06/06 06:44:59;;;;;;;1.05;0.80;;;13.00;99.90;;;;;;4731514;30;20040;-86
2021/06/06 06:47:30;;;;;;;0.60;0.60;;;13.10;99.90;;;;;;4718362;30;20063;-87
2021/06/06 06:50:07;;;;;;;0.70;0.70;;;13.10;99.90;;;;;;4730975;30;20057;-86
2021/06/06 06:52:47;;;;;;;0.60;0.60;;;13.20;99.90;;;;;;4731216;30;20049;-88
2021/06/06 06:55:18;;;;;;;0.68;0.68;;;13.20;99.90;;;;;;4717610;30;20071;-86
2021/06/06 06:57:51;;;;;;;0.85;0.70;;;13.20;99.90;;;;;;4717720;30;20053;-87
2021/06/06 07:00:32;;;;;;;2.35;0.70;;;13.30;99.90;;;;;;4731211;30;20068;-87
2021/06/06 07:03:09;;;;;;;0.55;0.55;;;13.30;99.90;;;;;;4704523;30;20061;-87
2021/06/06 07:05:40;;;;;;;1.15;1.02;;;13.40;99.90;;;;;;4712569;30;20058;-87
2021/06/06 07:08:13;;;;;;;0.82;0.82;;;13.40;99.90;;;;;;4698470;30;20064;-87
2021/06/06 07:10:46;;;;;;;2.30;0.50;;;13.40;99.90;;;;;;4697750;30;20413;-87
2021/06/06 07:13:17;;;;;;;2.17;0.60;;;13.40;99.90;;;;;;4709354;30;20434;-87
2021/06/06 07:16:26;;;;;;;;;;;;;;;;;;;;;
2021/06/06 07:19:38;;;;;;;0.70;0.70;;;13.50;99.90;;;;;;4697123;30;20529;-87
2021/06/06 07:25:19;;;;;;;0.95;0.73;;;13.50;99.90;;;;;;4703955;30;20040;-86
2021/06/06 07:32:35;;;;;;;0.55;0.55;;;13.70;99.90;;;;;;4631612;30;20479;-86
2021/06/06 07:39:35;;;;;;;0.77;0.70;;;13.70;99.90;;;;;;4690711;30;20597;-87
2021/06/06 07:42:18;;;;;;;0.43;0.43;;;13.80;99.90;;;;;;4734878;30;20052;-88
2021/06/06 07:44:54;;;;;;;0.98;0.88;;;13.70;99.90;;;;;;4740754;30;20408;-86
2021/06/06 07:48:16;;;;;;;1.45;0.70;;;13.80;99.90;;;;;;4719718;30;20083;-88
2021/06/06 07:51:15;;;;;;;0.73;0.70;;;13.90;99.90;;;;;;4715103;30;20617;-89
2021/06/06 07:55:15;;;;;;;0.82;0.82;;;14.00;99.90;;;;;;4662169;30;20633;-87
2021/06/06 07:58:01;;;;;;;0.70;0.70;;;14.10;99.90;;;;;;4688432;30;20047;-87
2021/06/06 08:00:34;;;;;;;0.57;0.52;;;14.00;99.90;;;;;;4736081;30;20126;-88
2021/06/06 08:03:07;;;;;;;1.27;1.17;;;14.00;99.90;;;;;;4700703;30;20049;-88
2021/06/06 08:05:42;;;;;;;1.40;1.35;;;14.00;99.90;;;;;;4731553;30;20040;-86
2021/06/06 08:08:18;;;;;;;0.85;0.85;;;14.20;99.90;;;;;;4728750;30;20052;-86
2021/06/06 08:10:53;;;;;;;0.73;0.73;;;14.20;99.90;;;;;;4746782;30;20527;-86
2021/06/06 08:13:22;;;;;;;0.70;0.70;;;14.30;99.90;;;;;;4729907;30;20052;-85
2021/06/06 08:15:57;;;;;;;2.58;0.70;;;14.20;99.90;;;;;;4732936;30;20556;-82
2021/06/06 08:18:31;;;;;;;1.05;0.80;;;14.00;99.90;;;;;;4732312;30;20052;-86
2021/06/06 08:25:23;;;;;;;0.82;0.75;;;14.00;99.90;;;;;;4694371;30;20508;-86
2021/06/06 08:29:14;;;;;;;0.90;0.90;;;14.00;99.90;;;;;;4715066;30;20084;-89
2021/06/06 08:31:46;;;;;;;0.60;0.60;;;14.10;99.90;;;;;;4698912;30;20069;-84
2021/06/06 08:34:19;;;;;;;0.50;0.45;;;14.20;99.90;;;;;;4716736;30;20492;-85
2021/06/06 08:36:49;;;;;;;0.70;0.70;;;14.30;99.90;;;;;;4732782;30;20076;-85
2021/06/06 08:39:32;;;;;;;0.45;0.45;;;14.20;99.90;;;;;;4718403;30;20060;-88
2021/06/06 08:42:11;;;;;;;1.10;1.00;;;14.20;99.90;;;;;;4704174;30;20558;-87
2021/06/06 08:44:44;;;;;;;0.70;0.70;;;14.30;99.90;;;;;;4716092;30;20073;-87
2021/06/06 08:47:29;;;;;;;0.77;0.77;;;14.20;99.90;;;;;;4734075;30;20064;-86
2021/06/06 08:50:01;;;;;;;1.30;0.75;;;14.20;99.90;;;;;;4700310;30;20045;-88
2021/06/06 08:56:17;;;;;;;0.95;0.73;;;14.20;99.90;;;;;;4721674;30;20056;-83
2021/06/06 08:59:04;;;;;;;0.70;0.70;;;14.20;99.90;;;;;;4748349;30;20057;-84
2021/06/06 09:02:08;;;;;;;0.60;0.60;;;14.30;99.90;;;;;;4734917;30;20052;-84
2021/06/06 09:04:36;;;;;;;0.70;0.70;;;14.30;99.90;;;;;;4735272;30;20056;-84
2021/06/06 09:07:27;;;;;;;0.60;0.60;;;14.40;99.90;;;;;;4747169;30;20056;-86
2021/06/06 09:10:01;;;;;;;0.70;0.70;;;14.50;99.90;;;;;;4752003;30;20048;-83
2021/06/06 09:12:29;;;;;;;0.77;0.70;;;14.50;99.90;;;;;;4752457;30;20060;-84
2021/06/06 09:14:57;;;;;;;0.85;0.85;;;14.60;99.90;;;;;;4751939;30;20044;-84
2021/06/06 09:17:41;;;;;;;0.82;0.82;;;14.50;99.90;;;;;;4724053;30;20049;-85
2021/06/06 09:20:35;;;;;;;3.10;0.65;;;14.60;99.90;;;;;;4735793;30;20048;-84
2021/06/06 09:23:19;;;;;;;0.73;0.57;;;14.60;99.90;;;;;;4742440;30;20048;-83
2021/06/06 09:26:05;;;;;;;4.55;1.20;;;14.70;99.90;;;;;;4725541;30;20053;-84
2021/06/06 09:28:38;;;;;;;0.50;0.50;;;15.00;99.90;;;;;;4761685;30;20079;-83
2021/06/06 09:31:21;;;;;;;0.70;0.70;;;15.00;99.90;;;;;;4717993;30;20057;-84
2021/06/06 09:34:04;;;;;;;0.65;0.65;;;14.70;99.90;;;;;;4745891;30;20063;-87
2021/06/06 09:36:39;;;;;;;0.57;0.50;;;14.80;99.90;;;;;;4724838;30;20060;-84
2021/06/06 09:39:10;;;;;;;2.00;1.30;;;14.80;99.90;;;;;;4713794;30;20056;-84
2021/06/06 09:41:47;;;;;;;0.60;0.60;;;14.80;99.90;;;;;;4713470;30;20052;-83
2021/06/06 09:44:14;;;;;;;1.05;1.02;;;14.90;99.90;;;;;;4703406;30;20487;-84
2021/06/06 09:47:00;;;;;;;0.95;0.95;;;14.90;99.90;;;;;;4718059;30;20507;-84
2021/06/06 09:49:43;;;;;;;1.38;0.70;;;15.00;99.90;;;;;;4716394;30;20058;-84
2021/06/06 09:52:17;;;;;;;0.60;0.60;;;15.00;99.90;;;;;;4704034;30;20056;-82
2021/06/06 09:54:49;;;;;;;0.73;0.73;;;15.00;99.90;;;;;;4718039;30;20040;-82
2021/06/06 09:57:32;;;;;;;0.52;0.52;;;15.00;99.90;;;;;;4734446;30;20068;-81
2021/06/06 10:00:08;;;;;;;0.80;0.80;;;15.10;99.90;;;;;;4733758;30;20071;-83
2021/06/06 10:03:03;;;;;;;1.58;0.75;;;15.10;99.90;;;;;;4717761;30;20069;-82
2021/06/06 10:05:33;;;;;;;1.85;0.80;;;15.10;99.90;;;;;;4736965;30;20052;-81
2021/06/06 10:08:14;;;;;;;2.38;0.60;;;15.00;99.90;;;;;;4735596;30;20086;-80
2021/06/06 10:10:50;;;;;;;1.33;1.08;;;15.00;99.90;;;;;;4750414;30;20048;-80
2021/06/06 10:13:24;;;;;;;0.55;0.55;;;15.00;99.90;;;;;;4735062;30;20052;-83
2021/06/06 10:15:57;;;;;;;0.80;0.73;;;15.00;99.90;;;;;;4746862;30;20484;-81
2021/06/06 10:18:44;;;;;;;0.52;0.52;;;14.90;99.90;;;;;;4733845;30;20492;-81
2021/06/06 10:21:21;;;;;;;0.52;0.50;;;14.70;99.90;;;;;;4742613;30;20056;-83
2021/06/06 10:24:07;;;;;;;0.90;0.90;;;14.80;99.90;;;;;;4715493;30;20071;-81
2021/06/06 10:26:52;;;;;;;0.82;0.68;;;14.70;99.90;;;;;;4718608;30;20078;-80
2021/06/06 10:29:27;;;;;;;0.95;0.88;;;14.60;99.90;;;;;;4720574;30;20051;-83
2021/06/06 10:32:06;;;;;;;0.75;0.75;;;14.70;99.90;;;;;;4723134;30;20098;-80
2021/06/06 10:34:48;;;;;;;0.65;0.65;;;14.80;99.90;;;;;;4754605;30;20048;-82
2021/06/06 10:37:16;;;;;;;0.73;0.65;;;14.80;99.90;;;;;;4720527;30;20754;-82
2021/06/06 10:40:08;;;;;;;0.50;0.50;;;15.00;99.90;;;;;;4722164;30;20049;-81
2021/06/06 10:43:10;;;;;;;0.88;0.88;;;15.00;99.90;;;;;;4715204;30;20063;-82
2021/06/06 10:45:50;;;;;;;0.60;0.60;;;15.10;99.90;;;;;;4730859;30;20523;-82
2021/06/06 10:48:26;;;;;;;1.33;0.87;;;15.10;99.90;;;;;;4732944;30;20457;-82
2021/06/06 10:51:27;;;;;;;1.83;0.50;;;15.20;99.90;;;;;;4731571;30;20492;-81
2021/06/06 10:53:58;;;;;;;0.73;0.73;;;15.10;99.90;;;;;;4727390;30;20064;-82
2021/06/06 10:56:44;;;;;;;1.60;0.95;;;15.10;99.90;;;;;;4720277;30;20053;-82
2021/06/06 10:59:13;;;;;;;0.73;0.70;;;15.00;99.90;;;;;;4721980;30;20064;-87
2021/06/06 11:01:43;;;;;;;0.68;0.68;;;15.00;99.90;;;;;;4715444;30;20053;-84
2021/06/06 11:04:28;;;;;;;0.40;0.40;;;15.00;99.90;;;;;;4715413;30;20073;-84
2021/06/06 11:07:09;;;;;;;3.08;0.47;;;15.10;99.90;;;;;;4714710;30;20060;-83
2021/06/06 11:09:56;;;;;;;0.63;0.63;;;15.10;99.90;;;;;;4760160;30;20056;-85
2021/06/06 11:12:33;;;;;;;0.90;0.90;;;15.20;99.90;;;;;;4733620;30;20064;-83
2021/06/06 11:15:17;;;;;;;0.60;0.60;;;15.20;99.90;;;;;;4729784;30;20052;-82
2021/06/06 11:17:47;;;;;;;1.67;1.58;;;15.10;99.90;;;;;;4732069;30;20053;-81
2021/06/06 11:20:27;;;;;;;0.90;0.90;;;15.30;99.90;;;;;;4731472;30;20065;-81
2021/06/06 11:22:56;;;;;;;0.70;0.70;;;15.60;99.90;;;;;;4731458;30;20060;-81
2021/06/06 11:25:48;;;;;;;2.63;1.02;;;15.80;99.90;;;;;;4731926;30;20048;-81
2021/06/06 11:28:22;;;;;;;0.75;0.75;;;15.80;99.90;;;;;;4722314;30;20064;-80
2021/06/06 11:31:30;;;;;;;1.63;0.80;;;15.90;99.90;;;;;;4731554;30;20060;-83
2021/06/06 11:34:34;;;;;;;1.02;1.00;;;16.00;99.90;;;;;;4730021;30;20052;-82
2021/06/06 11:37:09;;;;;;;0.80;0.80;;;16.10;99.90;;;;;;4749419;30;20049;-82
2021/06/06 11:39:47;;;;;;;0.60;0.60;;;16.10;99.90;;;;;;4727461;30;20065;-82
2021/06/06 11:42:23;;;;;;;0.80;0.80;;;16.20;99.90;;;;;;4712934;30;20049;-82
2021/06/06 11:44:54;;;;;;;0.68;0.68;;;16.20;99.90;;;;;;4727390;30;20060;-81
2021/06/06 11:47:48;;;;;;;0.65;0.65;;;16.40;99.90;;;;;;4715304;30;20072;-82
2021/06/06 11:50:28;;;;;;;0.70;0.70;;;16.20;99.90;;;;;;4729022;30;20049;-83
2021/06/06 11:53:23;;;;;;;1.13;0.82;;;15.90;99.90;;;;;;4714096;30;20052;-83
2021/06/06 11:55:57;;;;;;;0.75;0.75;;;15.70;99.90;;;;;;4727986;30;20060;-84
2021/06/06 11:58:34;;;;;;;0.68;0.68;;;15.80;99.90;;;;;;4683846;30;20087;-83
2021/06/06 12:01:08;;;;;;;0.75;0.57;;;15.80;99.90;;;;;;4713995;30;20049;-81
2021/06/06 12:03:40;;;;;;;0.88;0.88;;;15.70;99.90;;;;;;4714112;30;20061;-84
2021/06/06 12:06:30;;;;;;;0.73;0.73;;;15.70;99.90;;;;;;4723670;30;20063;-86
2021/06/06 12:09:11;;;;;;;20.33;1.43;;;15.90;99.90;;;;;;4729191;30;20091;-87
2021/06/06 12:11:41;;;;;;;1.25;0.82;;;16.10;99.90;;;;;;4712574;30;20060;-84
2021/06/06 12:14:29;;;;;;;0.75;0.70;;;16.20;99.90;;;;;;4742919;30;20044;-83
2021/06/06 12:17:03;;;;;;;0.88;0.70;;;16.20;99.90;;;;;;4726253;30;20495;-84
2021/06/06 12:19:45;;;;;;;0.65;0.65;;;16.10;99.90;;;;;;4758856;30;20061;-86
2021/06/06 12:22:22;;;;;;;0.70;0.70;;;15.90;99.90;;;;;;4743639;30;20044;-86
2021/06/06 12:25:17;;;;;;;0.60;0.60;;;15.80;99.90;;;;;;4714669;30;20045;-85
2021/06/06 12:28:23;;;;;;;0.50;0.50;;;16.00;99.90;;;;;;4737728;30;20057;-85
2021/06/06 12:30:55;;;;;;;1.23;1.13;;;15.90;99.90;;;;;;4729120;30;20444;-85
2021/06/06 12:33:37;;;;;;;0.50;0.50;;;15.90;99.90;;;;;;4743660;30;20045;-85
2021/06/06 12:36:27;;;;;;;0.88;0.82;;;15.80;99.90;;;;;;4715533;30;20053;-86
2021/06/06 12:39:01;;;;;;;0.50;0.50;;;15.80;99.90;;;;;;4709927;30;20061;-83
2021/06/06 12:41:31;;;;;;;0.60;0.60;;;15.90;99.90;;;;;;4726565;30;20084;-86
2021/06/06 12:44:00;;;;;;;0.90;0.82;;;16.00;99.90;;;;;;4729791;30;20052;-86
2021/06/06 12:46:49;;;;;;;1.13;0.57;;;16.00;99.90;;;;;;4715252;30;20052;-87
2021/06/06 12:49:29;;;;;;;0.60;0.60;;;16.10;99.90;;;;;;4717245;30;20063;-85
2021/06/06 12:51:58;;;;;;;0.47;0.47;;;16.10;99.90;;;;;;4731886;30;20075;-85
2021/06/06 12:54:32;;;;;;;1.08;0.73;;;16.10;99.90;;;;;;4731218;30;20056;-86
2021/06/06 12:57:14;;;;;;;4.68;1.05;;;16.30;99.90;;;;;;4715228;30;20063;-85
2021/06/06 12:59:43;;;;;;;0.93;0.93;;;16.30;99.90;;;;;;4730194;30;20056;-86
2021/06/06 13:02:31;;;;;;;0.68;0.38;;;16.40;99.90;;;;;;4735895;30;20063;-87
2021/06/06 13:05:13;;;;;;;0.40;0.40;;;16.10;99.90;;;;;;4719031;30;20048;-88
2021/06/06 13:07:57;;;;;;;1.30;0.30;;;16.30;99.90;;;;;;4731971;30;20065;-88
2021/06/06 13:10:29;;;;;;;0.50;0.50;;;16.30;99.90;;;;;;4734330;30;20648;-85
2021/06/06 13:13:00;;;;;;;0.95;0.63;;;16.40;99.90;;;;;;4718850;30;20051;-87
2021/06/06 13:15:41;;;;;;;0.65;0.65;;;16.60;99.90;;;;;;4727099;30;20068;-87
2021/06/06 13:18:23;;;;;;;0.63;0.63;;;16.70;99.90;;;;;;4747770;30;20057;-87
2021/06/06 13:21:22;;;;;;;0.40;0.40;;;16.70;99.90;;;;;;4731772;30;20072;-87
2021/06/06 13:24:05;;;;;;;0.40;0.38;;;16.70;99.90;;;;;;4718274;30;20064;-89
2021/06/06 13:26:43;;;;;;;0.50;0.50;;;16.60;99.90;;;;;;4718330;30;20411;-88
2021/06/06 13:29:39;;;;;;;0.50;0.50;;;16.50;99.90;;;;;;4731823;30;20063;-87
2021/06/06 13:32:24;;;;;;;1.02;0.65;;;16.30;99.90;;;;;;4729261;30;20060;-87
2021/06/06 13:35:21;;;;;;;0.50;0.50;;;16.10;99.90;;;;;;4689798;30;20435;-88
2021/06/06 13:37:54;;;;;;;0.40;0.40;;;16.10;99.90;;;;;;4761409;30;20512;-88
2021/06/06 13:40:41;;;;;;;0.70;0.70;;;16.20;99.90;;;;;;4760983;30;20068;-86
2021/06/06 13:43:14;;;;;;;0.80;0.80;;;16.50;99.90;;;;;;4717148;30;20061;-88
2021/06/06 13:45:48;;;;;;;0.57;0.57;;;16.70;99.90;;;;;;4730174;30;20053;-86
2021/06/06 13:48:29;;;;;;;0.50;0.50;;;16.80;99.90;;;;;;4715280;30;20661;-88
2021/06/06 13:50:58;;;;;;;0.57;0.57;;;16.70;99.90;;;;;;4710408;30;20067;-86
2021/06/06 13:53:30;;;;;;;0.60;0.60;;;16.50;99.90;;;;;;4729516;30;20060;-89
2021/06/06 13:55:58;;;;;;;0.60;0.60;;;16.60;99.90;;;;;;4728633;30;20053;-86
2021/06/06 13:58:27;;;;;;;0.47;0.47;;;16.70;99.90;;;;;;4716175;30;20056;-83
2021/06/06 14:00:56;;;;;;;0.28;0.28;;;16.90;99.90;;;;;;4733145;30;20760;-82
2021/06/06 14:03:33;;;;;;;0.50;0.50;;;17.00;99.90;;;;;;4715831;30;20061;-83